Startpagina
METAR-TAF:

METAR-TAF

Vliegvelden :

Tongatapu, Tonga

breedte: 21-14S, lengte: 175-09W, hoogte: 38 m

Actueel weer

Dit bericht is 1 uur en het 4 minuten geleden gemaakt, om 12:00 UTC
Wind 5 kt uit het oostzuidoosten
Temperatuur 24°C
Vochtigheid 83%
Druk 1007 hPa
Zicht 10 km of meer
Weinig wolken op 1600 ft

METAR: NFTF 191200Z 12005KT 9999 FEW016 24/21 Q1007 RMK GRASS DEW

Tijdstip: 02:04 (13:04 UTC)

Verwachting

Dit bericht is 1 uur en het 50 minuten geleden gemaakt, om 11:14 UTC
Verwachting geldig van 19 om 12 UTC tot 20 om 12 UTC
Wind 5 kt uit het oostzuidoosten
Zicht 10 km of meer
Weinig wolken op 1600 ft

TAF: NFTF 191114Z 1912/2012 11005KT 9999 FEW016

Waarnemingen en weersverwachtingen van meer dan 4000 vliegvelden (METAR en TAF).

De beschikbare stations zijn de gele en rode punten op de kaart.

Ga met uw muis naar het station om de naam te zien.

Klik dan om waarnemingen en weersverwachtingen te zien.

kaart wijzigen: klik op de groene knoppen met een zwart kruis om in te zoomen, op de groene knop met een streepje om uit te zoomen of op de groene pijlen voor aangrenzende kaarten.


METAR-TAF: